Latest Coastal Weather Observations for Wynyard

IDT60701

Issued at 6:52 pm EDT Monday 22 December 2014 (issued every 10 minutes, with the page automatically refreshed every 10 minutes)

About coastal observations | Map of coastal stations | Coastal observations for TAS | Marine services | Other Formats
Station Details ID: 091107 Name: WYNYARD AIRPORT Lat: -41.00 Lon: 145.73 Height: 12.0 m
Data from the previous 72 hours. | See also: Recent months at Wynyard
Date/Time
EDT
Temp

°C
Wind Pressure Rain
since 9am
mm
Weather Cloud Vis
km
Sea
Height
m
Swell
Dir
 
Speed
knots
Gust
knots
hPa Trend Height
m
Period
s
Dir
22/06:30pm 17.3 ESE 8 11 1010.6 - 0.0 - - 10 - - - -
22/06:00pm 17.3 ESE 9 15 1010.5 - 0.0 - Mostly cloudy 10 - - - -
22/05:30pm 17.4 E 11 16 1010.3 - 0.0 - Partly cloudy 10 - - - -
22/05:00pm 17.3 E 12 17 1011.0 - 0.0 - Partly cloudy 10 - - - -
22/04:30pm 17.4 E 9 13 1011.8 - 0.0 - Partly cloudy 10 - - - -
22/04:00pm 17.2 ENE 7 11 1012.5 - 0.0 - Partly cloudy 10 - - - -
22/03:30pm 17.4 E 9 13 1012.6 - 0.0 - Partly cloudy 10 - - - -
22/03:00pm 17.4 ENE 8 11 1013.2 - 0.0 - Cloudy 10 - - - -
22/02:30pm 17.8 E 7 9 1014.1 - 0.0 - Partly cloudy 10 - - - -
22/02:00pm 18.6 ESE 8 10 1014.5 - 0.0 - Partly cloudy 10 - - - -
22/01:30pm 18.0 E 6 7 1015.5 - 0.0 - Partly cloudy 10 - - - -
22/01:00pm 18.0 ENE 6 8 1015.8 - 0.0 - Cloudy 10 - - - -
22/12:30pm 18.0 ENE 6 7 1015.8 - 0.0 - Partly cloudy 10 - - - -
22/12:00pm 17.7 E 5 7 1015.8 - 0.0 - Cloudy 10 - - - -
22/11:30am 17.4 ENE 5 8 1015.9 - 0.0 - Partly cloudy 10 - - - -
22/11:00am 18.6 ENE 5 9 1016.0 - 0.0 - Partly cloudy 10 - - - -
22/10:42am 18.0 E 6 11 1015.9 - 0.0 - Partly cloudy 10 - - - -
22/10:30am 17.1 E 10 15 1015.7 - 0.0 - Partly cloudy 10 - - - -
22/10:00am 16.6 E 9 12 1015.6 - 0.0 - Cloudy 10 - - - -
22/09:30am 16.6 E 11 15 1015.4 - 0.0 - Cloudy 10 - - - -
22/09:00am 16.6 E 10 15 1015.2 - 0.0 - Mostly cloudy 10 - - - -
22/08:30am 16.0 ESE 10 15 1014.7 - 0.0 - Cloudy 10 - - - -
22/08:00am 14.7 SSW 5 8 1014.8 - 0.0 - Cloudy 10 - - - -
22/07:30am 12.5 SW 3 5 1014.7 - 0.0 - Partly cloudy 10 - - - -
22/07:00am 10.7 W 5 6 1014.7 - 0.0 - Cloudy 10 - - - -
22/06:38am 9.8 W 4 5 1014.4 - 0.0 - Partly cloudy 10 - - - -
22/06:30am 9.3 W 5 6 1014.3 - 0.0 - Partly cloudy 10 - - - -
22/06:01am 7.4 WSW 6 7 1014.2 - 0.0 - Partly cloudy 10 - - - -
22/06:00am 7.3 WSW 6 7 1014.2 - 0.0 - Mostly clear 10 - - - -
22/05:47am 7.5 W 6 7 1014.1 - 0.0 - Partly cloudy 10 - - - -
22/05:30am 6.8 W 5 5 1013.9 - 0.0 - - 10 - - - -
22/05:00am 8.9 WNW 5 6 1013.7 - 0.0 - - 10 - - - -
22/04:30am 7.4 WNW 6 7 1013.6 - 0.0 - - 10 - - - -
22/04:00am 7.5 WSW 5 5 1013.3 - 0.0 - - 10 - - - -
22/03:30am 7.5 W 5 7 1013.4 - 0.0 - - 10 - - - -
22/03:00am 8.5 WSW 4 5 1013.4 - 0.0 - - 10 - - - -
22/02:30am 8.2 W 5 6 1013.7 - 0.0 - - 10 - - - -
22/02:00am 10.2 WNW 5 7 1013.9 - 0.0 - - 10 - - - -
22/01:30am 10.2 SSW 5 6 1013.8 - 0.0 - - 10 - - - -
22/01:00am 9.3 SW 6 9 1013.9 - 0.0 - - 10 - - - -
22/12:30am 9.3 SW 6 7 1014.2 - 0.0 - - 10 - - - -
 
Date/Time
EDT
Temp

°C
Wind Pressure Rain
since 9am
mm
Weather Cloud Vis
km
Sea
Height
m
Swell
Dir
 
Speed
knots
Gust
knots
hPa Trend Height
m
Period
s
Dir
21/11:30pm 10.7 W 5 5 1014.0 - 0.0 - - 10 - - - -
21/11:00pm 13.5 WSW 5 7 1014.0 - 0.0 - - 10 - - - -
21/10:30pm 13.6 SW 7 9 1013.8 - 0.0 - - 10 - - - -
21/10:00pm 14.2 SW 8 10 1013.8 - 0.0 - - 10 - - - -
21/09:30pm 14.5 S 4 6 1013.1 - 0.0 - - 10 - - - -
21/09:00pm 16.5 W 8 10 1012.9 - 0.0 - - 10 - - - -
21/08:30pm 18.0 W 10 13 1012.6 - 0.0 - - 10 - - - -
21/08:00pm 19.1 WNW 10 12 1012.2 - 0.0 - - 10 - - - -
21/07:30pm 18.7 NW 9 11 1012.2 - 0.0 - - 10 - - - -
21/07:00pm 17.5 NW 10 16 1012.3 - 0.0 - - 10 - - - -
21/06:30pm 17.2 NW 13 17 1012.3 - 0.0 - - 10 - - - -
21/06:00pm 17.4 NW 16 20 1012.5 - 0.0 - - 10 - - - -
21/05:30pm 17.8 NW 13 18 1012.6 - 0.0 - - 10 - - - -
21/05:00pm 18.1 NW 13 18 1012.9 - 0.0 - - 10 - - - -
21/04:30pm 19.0 NNW 14 19 1013.0 - 0.0 - - 10 - - - -
21/04:00pm 19.1 NNW 14 18 1013.1 - 0.0 - - 10 - - - -
21/03:30pm 18.9 NW 13 16 1013.5 - 0.0 - - 10 - - - -
21/03:00pm 18.6 NNW 11 14 1013.5 - 0.0 - - 10 - - - -
21/02:30pm 18.6 NNW 13 18 1013.6 - 0.0 - - 10 - - - -
21/02:00pm 18.1 NW 13 16 1013.8 - 0.0 - - 10 - - - -
21/01:30pm 18.2 NNW 15 19 1013.8 - 0.0 - - 10 - - - -
21/01:00pm 19.1 NNW 14 19 1014.6 - 0.0 - Partly cloudy 10 - - - -
21/12:30pm 18.3 NNW 13 18 1015.1 - 0.0 - - 10 - - - -
21/12:00pm 18.9 NNW 11 15 1015.0 - 0.0 - Mostly clear 10 - - - -
21/11:30am 18.6 N 9 15 1015.1 - 0.0 - - 10 - - - -
21/11:00am 18.0 NNE 8 10 1014.8 - 0.0 - - 10 - - - -
21/10:30am 17.0 NE 8 10 1014.9 - 0.0 - - 10 - - - -
21/10:00am 17.4 NNE 7 11 1015.0 - 0.0 - - 10 - - - -
21/09:30am 16.8 NNE 6 8 1015.2 - 0.0 - - 10 - - - -
21/09:00am 17.1 NE 5 9 1014.9 - 0.0 - Partly cloudy 10 - - - -
21/08:30am 15.4 NW 1 4 1014.9 - 0.0 - - 10 - - - -
21/08:00am 13.9 WNW 5 7 1014.8 - 0.0 - - 10 - - - -
21/07:30am 12.0 W 5 7 1014.4 - 0.0 - - 10 - - - -
21/07:00am 10.7 W 7 7 1014.5 - 0.0 - - 10 - - - -
21/06:30am 9.3 W 6 8 1014.6 - 0.0 - - 10 - - - -
21/06:00am 8.7 WNW 5 7 1014.8 - 0.0 - - 10 - - - -
21/05:30am 6.7 WSW 5 6 1015.2 - 0.0 - - 10 - - - -
21/05:00am 8.7 WNW 8 9 1014.8 - 0.0 - - 10 - - - -
21/04:30am 6.7 W 6 7 1014.2 - 0.0 - - 10 - - - -
21/04:00am 8.5 W 6 7 1014.0 - 0.0 - - 10 - - - -
21/03:30am 8.7 W 7 8 1014.0 - 0.0 - - 10 - - - -
21/03:00am 9.5 W 8 9 1014.2 - 0.0 - - 10 - - - -
21/02:30am 9.4 W 8 10 1014.3 - 0.0 - - 10 - - - -
21/02:00am 10.1 WSW 4 6 1014.5 - 0.0 - - 10 - - - -
21/01:30am 10.2 W 6 9 1014.8 - 0.0 - - 10 - - - -
21/01:00am 10.9 W 8 10 1015.0 - 0.0 - - 10 - - - -
21/12:30am 10.9 WSW 5 6 1015.2 - 0.0 - - 10 - - - -
21/12:00am 12.0 WSW 11 12 1015.5 - 0.0 - - 10 - - - -
 
Date/Time
EDT
Temp

°C
Wind Pressure Rain
since 9am
mm
Weather Cloud Vis
km
Sea
Height
m
Swell
Dir
 
Speed
knots
Gust
knots
hPa Trend Height
m
Period
s
Dir
20/11:30pm 10.8 W 7 8 1015.8 - 0.0 - - 10 - - - -
20/11:00pm 10.9 W 7 9 1015.9 - 0.0 - - 10 - - - -
20/10:30pm 11.0 WSW 6 7 1015.8 - 0.0 - - 10 - - - -
20/10:00pm 12.7 WSW 5 7 1015.6 - 0.0 - - 10 - - - -
20/09:30pm 13.8 SW 6 7 1015.3 - 0.0 - - 10 - - - -
20/09:00pm 15.0 SW 8 11 1014.9 - 0.0 - - 10 - - - -
20/08:30pm 16.7 SW 8 11 1015.0 - 0.0 - - 10 - - - -
20/08:00pm 18.2 SW 10 13 1014.6 - 0.0 - - 10 - - - -
20/07:30pm 19.2 WSW 13 16 1014.3 - 0.0 - - 10 - - - -
20/07:00pm 19.9 WSW 13 19 1014.0 - 0.0 - - 10 - - - -
20/06:30pm 20.4 WSW 14 19 1013.7 - 0.0 - - 10 - - - -
20/06:00pm 21.1 WSW 14 19 1013.5 - 0.0 - - 10 - - - -
20/05:30pm 21.1 WSW 16 21 1013.3 - 0.0 - - 10 - - - -
20/05:00pm 21.4 WSW 18 24 1013.4 - 0.0 - - 10 - - - -
20/04:30pm 21.6 WSW 17 27 1013.5 - 0.0 - - 10 - - - -
20/04:25pm 22.0 WSW 15 27 1013.5 - 0.0 - Partly cloudy 10 - - - -
20/04:00pm 21.9 W 19 27 1013.5 - 0.0 - - 10 - - - -
20/03:31pm 21.7 WSW 17 27 1013.8 - 0.0 - - 10 - - - -
20/03:30pm 21.7 WSW 16 23 1013.8 - 0.0 - - 10 - - - -
20/03:00pm 21.7 W 17 25 1014.0 - 0.0 - Mostly clear 10 - - - -
20/02:52pm 21.9 WSW 16 26 1014.1 - 0.0 - Partly cloudy 10 - - - -
20/02:41pm 21.4 WSW 16 27 1014.1 - 0.0 - Partly cloudy 10 - - - -
20/02:30pm 21.7 W 16 23 1014.0 - 0.0 - Partly cloudy 10 - - - -
20/02:00pm 20.4 WSW 15 22 1014.1 - 0.0 - Partly cloudy 10 - - - -
20/01:30pm 21.5 WSW 18 24 1014.1 - 0.0 - Partly cloudy 10 - - - -
20/01:02pm 20.2 WSW 17 27 1014.2 - 0.0 - Partly cloudy 10 - - - -
20/01:00pm 20.5 WSW 16 25 1014.3 - 0.0 - Partly cloudy 10 - - - -
20/12:30pm 20.4 SW 16 22 1014.6 - 0.0 - Partly cloudy 10 - - - -
20/12:00pm 19.2 WSW 18 23 1014.6 - 0.0 - Cloudy 10 - - - -
20/11:32am 20.1 WSW 15 25 1014.5 - 0.0 - Partly cloudy 10 - - - -
20/11:30am 19.9 WSW 15 20 1014.7 - 0.0 - Partly cloudy 10 - - - -
20/11:00am 20.1 WSW 15 23 1014.5 - 0.0 - Partly cloudy 10 - - - -
20/10:49am 18.6 WSW 18 28 1014.5 - 0.0 - Partly cloudy 10 - - - -
20/10:30am 18.8 W 15 20 1014.3 - 0.0 - Partly cloudy 10 - - - -
20/10:00am 19.1 WSW 16 22 1014.4 - 0.0 - Partly cloudy 10 - - - -
20/09:50am 18.3 WSW 12 19 1014.5 - 0.0 - Partly cloudy 10 - - - -
20/09:30am 17.3 W 12 17 1014.4 - 0.0 - Partly cloudy 10 - - - -
20/09:00am 16.6 W 14 20 1014.3 - 0.0 - Cloudy 10 - - - -
20/08:30am 16.0 WNW 13 17 1014.2 - 0.0 - Partly cloudy 10 - - - -
20/08:06am 15.9 W 13 19 1014.1 - 0.0 - Partly cloudy 10 - - - -
20/08:00am 15.4 W 14 20 1014.0 - 0.0 - Partly cloudy 10 - - - -
20/07:30am 14.4 WNW 11 15 1013.8 - 0.0 - Partly cloudy 10 - - - -
20/07:00am 13.9 WNW 10 15 1013.8 - 0.0 - Partly cloudy 10 - - - -
20/06:30am 13.2 W 9 12 1013.5 - 0.0 - Partly cloudy 10 - - - -
20/06:00am 13.0 WNW 9 12 1013.3 - 0.0 - Cloudy 10 - - - -
20/05:58am 12.9 WNW 9 12 1013.4 - 0.0 - Partly cloudy 10 - - - -
20/05:34am 13.5 WNW 9 12 1013.4 - 0.0 - Partly cloudy 10 - - - -
20/05:30am 13.5 WNW 9 12 1013.5 - 0.0 - Partly cloudy 10 - - - -
20/05:00am 12.0 W 1 5 1013.3 - 0.0 - Partly cloudy 10 - - - -
20/04:30am 11.9 S 2 5 1013.4 - 0.0 - Partly cloudy 10 - - - -
20/04:00am 12.7 W 7 9 1013.3 - 0.0 - Partly cloudy 10 - - - -
20/03:30am 12.8 WNW 8 10 1013.6 - 0.0 - Partly cloudy 10 - - - -
20/03:00am 12.7 NW 8 9 1014.0 - 0.0 - Cloudy 10 - - - -
20/02:30am 12.7 WNW 6 8 1014.3 - 0.0 - Partly cloudy 10 - - - -
20/02:00am 11.7 SW 3 4 1014.8 - 0.0 - Partly cloudy 10 - - - -
20/01:30am 11.7 SW 3 4 1015.2 - 0.0 - Partly cloudy 10 - - - -
20/01:00am 11.6 WSW 3 4 1015.6 - 0.0 - Partly cloudy 10 - - - -
20/12:30am 11.2 WSW 4 5 1015.7 - 0.0 - Partly cloudy 10 - - - -
20/12:00am 11.9 WNW 6 7 1016.0 - 0.0 - Cloudy 10 - - - -
 
Date/Time
EDT
Temp

°C
Wind Pressure Rain
since 9am
mm
Weather Cloud Vis
km
Sea
Height
m
Swell
Dir
 
Speed
knots
Gust
knots
hPa Trend Height
m
Period
s
Dir
19/11:30pm 12.6 WNW 7 8 1016.2 - 0.0 - Partly cloudy 10 - - - -
19/11:00pm 12.0 W 6 8 1016.6 - 0.0 - Partly cloudy 10 - - - -
19/10:30pm 12.5 WNW 5 7 1016.8 - 0.0 - Partly cloudy 10 - - - -
19/10:00pm 12.6 W 6 7 1016.8 - 0.0 - Partly cloudy 10 - - - -
19/09:30pm 12.9 W 9 11 1016.7 - 0.0 - Cloudy 10 - - - -
19/09:00pm 13.0 WSW 10 14 1016.5 - 0.0 - Cloudy 10 - - - -
19/08:30pm 13.8 W 12 17 1016.2 - 0.0 - Partly cloudy 10 - - - -
19/08:00pm 14.4 W 13 16 1016.2 - 0.0 - Partly cloudy 10 - - - -
19/07:30pm 15.1 WSW 14 17 1015.5 - 0.0 - Partly cloudy 10 - - - -
19/07:00pm 15.6 WSW 9 13 1015.3 - 0.0 - Partly cloudy 10 - - - -

Other Formats:

Comma delimited format used in spreadsheet applications
http://www.bom.gov.au/fwo/IDT60701/IDT60701.95957.axf

JavaScript Object Notation format (JSON) in row-major order
http://www.bom.gov.au/fwo/IDT60701/IDT60701.95957.json